createdAt,value
2022-11-28T00:01:41.985Z,24.2289
2022-11-28T00:16:43.880Z,24.3131
2022-11-28T00:31:45.880Z,23.842
2022-11-28T00:46:47.856Z,25.9288
2022-11-28T01:01:49.904Z,26.7577
2022-11-28T01:16:51.879Z,27.2158
2022-11-28T01:31:53.874Z,26.2439
2022-11-28T01:46:55.891Z,27.1056
2022-11-28T02:01:57.912Z,27.3557
2022-11-28T02:16:59.837Z,27.6807
2022-11-28T02:32:01.787Z,27.8825
2022-11-28T02:47:03.790Z,24.3007
2022-11-28T03:02:05.793Z,23.0812
2022-11-28T03:17:07.738Z,25.3729
2022-11-28T03:32:09.727Z,26.8289
2022-11-28T03:47:11.738Z,26.8227
2022-11-28T04:02:13.732Z,25.4218
2022-11-28T04:17:15.638Z,26.8778
2022-11-28T04:32:17.523Z,26.3417
2022-11-28T04:47:19.425Z,25.0318
2022-11-28T05:02:21.392Z,27.3427
2022-11-28T05:17:23.322Z,27.2028
2022-11-28T05:32:25.278Z,24.6876
2022-11-28T05:47:27.171Z,25.3209
2022-11-28T06:02:29.286Z,24.1701
2022-11-28T06:17:31.321Z,23.7541
2022-11-28T06:32:33.238Z,24.0042
2022-11-28T06:47:35.148Z,24.1342
2022-11-28T07:02:37.291Z,23.1759
2022-11-28T07:17:39.311Z,24.7712
2022-11-28T07:32:41.297Z,26.6172
2022-11-28T07:47:43.194Z,26.2303
2022-11-28T08:02:45.150Z,23.3802
2022-11-28T08:17:47.045Z,24.2902
2022-11-28T08:32:48.912Z,23.4514
2022-11-28T08:47:50.842Z,22.6423
2022-11-28T09:02:52.792Z,22.3495
2022-11-28T09:17:54.673Z,19.8634
2022-11-28T09:32:56.537Z,20.5617
2022-11-28T09:47:58.403Z,20.3766
2022-11-28T10:03:00.279Z,20.3339
2022-11-28T10:18:02.136Z,19.8368
2022-11-28T10:33:04.130Z,19.0438
2022-11-28T10:48:37.072Z,19.765
2022-11-28T11:03:40.729Z,19.3459
2022-11-28T11:18:42.763Z,19.4239
2022-11-28T11:33:44.723Z,19.4951
2022-11-28T11:48:46.653Z,19.011
2022-11-28T12:03:48.662Z,19.4431
2022-11-28T12:18:50.641Z,19.4233
2022-11-28T12:33:52.545Z,18.3022
2022-11-28T12:48:54.468Z,19.1472
2022-11-28T13:03:56.399Z,18.6922
2022-11-28T13:18:58.383Z,19.0791
2022-11-28T13:34:00.292Z,18.231
2022-11-28T13:49:16.089Z,17.9221
2022-11-28T14:04:22.009Z,19.0432
2022-11-28T14:19:23.972Z,18.3802
2022-11-28T14:34:25.886Z,17.8633
2022-11-28T14:49:27.806Z,18.7244
2022-11-28T15:04:29.679Z,18.2143
2022-11-28T15:19:31.655Z,18.7312
2022-11-28T15:34:33.620Z,18.0292
2022-11-28T15:49:35.595Z,17.0864
2022-11-28T16:04:37.540Z,18.6594
2022-11-28T16:19:39.598Z,17.7593
2022-11-28T16:34:41.925Z,17.9475
2022-11-28T16:49:44.547Z,18.1431
2022-11-28T17:04:46.709Z,17.6386
2022-11-28T17:19:48.750Z,19.0333
2022-11-28T17:34:50.690Z,20.0931
2022-11-28T17:49:52.913Z,20.5939
2022-11-28T18:04:54.858Z,21.26
2022-11-28T18:19:57.878Z,20.7561
2022-11-28T18:35:00.113Z,20.7728
2022-11-28T18:50:02.015Z,22.2257
2022-11-28T19:05:03.973Z,22.9407
2022-11-28T19:20:06.106Z,22.0406
2022-11-28T19:35:08.025Z,23.6074
2022-11-28T19:50:09.977Z,24.1534
2022-11-28T20:05:11.867Z,23.5294
2022-11-28T20:20:13.799Z,24.4815
2022-11-28T20:35:15.797Z,24.8164
2022-11-28T20:50:17.732Z,25.09
2022-11-28T21:05:19.680Z,24.453
2022-11-28T21:20:21.546Z,23.1462
2022-11-28T21:35:23.495Z,24.7124
2022-11-28T21:50:25.477Z,25.5444
2022-11-28T22:05:27.385Z,24.3094
2022-11-28T22:20:29.313Z,25.4571
2022-11-28T22:35:31.262Z,24.1571
2022-11-28T22:50:37.359Z,25.5023
2022-11-28T23:05:46.537Z,26.2272
2022-11-28T23:20:50.960Z,27.0041
2022-11-28T23:35:52.972Z,27.144
2022-11-28T23:50:54.872Z,27.0759
